Hauptseite
METAR-TAF:

METAR-TAF

Flughäfen :

Kinloss Barracks

Kinloss, Schottland

Breite: 57-39N, Länge: 003-34W, Höhe: 7 m

Beobachtung

Neuester Wetterbericht von vor 1 Stunde und 11 Minuten, um 12:50 UTC
Wind 9 kt aus Nord
Temperatur 17°C
Luftfeuchtigkeit 48%
Luftdruck 1037 hPa
Sichtweite 10 km oder mehr
Leicht bewölkt in der Höhe von 4500 ft

METAR: EGQK 271250Z 35009KT 9999 FEW045 17/06 Q1037 BLU

Zeit: 15:01 (14:01 UTC)

Prognose

Neuester Wetterbericht von vor 3 Stunden und 22 Minuten, um 10:39 UTC
Gültige Prognose vom 27 um 12 UTC bis 28 um 06 UTC
Wind 8 kt aus Nord/Nordwest
Sichtweite 10 km oder mehr
Leicht bewölkt in der Höhe von 3500 ft
Wahrscheinlichkeit 30% :
Zeitweise
vom 27 um 23 UTC bis 28 um 06 UTC
Sichtweite: 7000 m
Durchbrochene Bewölkung in der Höhe von 2000 ft
Regen

TAF: EGQK 271039Z 2712/2806 34008KT 9999 FEW035 PROB30 TEMPO 2723/2806 7000 RA BKN020

Wetterbeobachtungen und Prognosen von mehr als 4000 Flughäfen (METAR und TAF Bericht).

Die verfügbaren Stationen werden durch gelbe und rote Markierungen auf der Karte dargestellt.

Führen Sie die Maus auf sie, um den Namen der Station zu sehen.

Darauf klicken, um die Beobachtung von Wetterbeobachtungen und Prognosen zu sehen.

Um die Karte zu ändern : klicken Sie auf den grünen Tasten mit einem schwarzen Kreuz Zum Vergrößern, auf den grünen Button mit einem Gedankenstrich zu verkleinern, oder auf die grünen Pfeile für benachbarte Karten.


METAR-TAF: